sensor_id;sensor_type;location;lat;lon;timestamp;temperature;humidity
65072;DHT22;51663;52.310;17.016;2023-05-23T00:02:51;33.30;26.80
65072;DHT22;51663;52.310;17.016;2023-05-23T00:05:54;33.20;26.80
65072;DHT22;51663;52.310;17.016;2023-05-23T00:08:57;33.30;27.00
65072;DHT22;51663;52.310;17.016;2023-05-23T00:11:59;33.30;26.90
65072;DHT22;51663;52.310;17.016;2023-05-23T00:15:02;33.30;27.00
65072;DHT22;51663;52.310;17.016;2023-05-23T00:18:04;33.30;27.00
65072;DHT22;51663;52.310;17.016;2023-05-23T00:21:06;33.30;27.10
65072;DHT22;51663;52.310;17.016;2023-05-23T00:24:09;33.20;27.10
65072;DHT22;51663;52.310;17.016;2023-05-23T00:27:11;33.20;27.10
65072;DHT22;51663;52.310;17.016;2023-05-23T00:30:13;33.20;27.10
65072;DHT22;51663;52.310;17.016;2023-05-23T00:33:16;33.20;27.10
65072;DHT22;51663;52.310;17.016;2023-05-23T00:36:19;33.20;26.90
65072;DHT22;51663;52.310;17.016;2023-05-23T00:39:21;33.20;26.80
65072;DHT22;51663;52.310;17.016;2023-05-23T00:42:23;33.30;27.00
65072;DHT22;51663;52.310;17.016;2023-05-23T00:45:26;33.30;27.00
65072;DHT22;51663;52.310;17.016;2023-05-23T00:48:28;33.20;27.00
65072;DHT22;51663;52.310;17.016;2023-05-23T00:51:30;33.10;27.10
65072;DHT22;51663;52.310;17.016;2023-05-23T00:54:33;33.00;27.00
65072;DHT22;51663;52.310;17.016;2023-05-23T00:57:37;33.10;27.20
65072;DHT22;51663;52.310;17.016;2023-05-23T01:00:46;33.00;27.20
65072;DHT22;51663;52.310;17.016;2023-05-23T01:04:08;33.00;27.20
65072;DHT22;51663;52.310;17.016;2023-05-23T01:07:11;33.00;26.90
65072;DHT22;51663;52.310;17.016;2023-05-23T01:10:16;33.10;26.90
65072;DHT22;51663;52.310;17.016;2023-05-23T01:13:40;33.00;26.80
65072;DHT22;51663;52.310;17.016;2023-05-23T01:16:57;33.00;27.00
65072;DHT22;51663;52.310;17.016;2023-05-23T01:20:14;33.00;27.00
65072;DHT22;51663;52.310;17.016;2023-05-23T01:30:07;33.20;27.00
65072;DHT22;51663;52.310;17.016;2023-05-23T01:33:14;33.20;26.90
65072;DHT22;51663;52.310;17.016;2023-05-23T01:36:17;33.20;26.90
65072;DHT22;51663;52.310;17.016;2023-05-23T01:39:20;33.20;26.90
65072;DHT22;51663;52.310;17.016;2023-05-23T01:42:22;33.00;26.90
65072;DHT22;51663;52.310;17.016;2023-05-23T01:45:25;33.10;27.00
65072;DHT22;51663;52.310;17.016;2023-05-23T01:48:29;33.00;27.10
65072;DHT22;51663;52.310;17.016;2023-05-23T01:51:32;33.00;27.20
65072;DHT22;51663;52.310;17.016;2023-05-23T01:54:36;33.00;27.20
65072;DHT22;51663;52.310;17.016;2023-05-23T01:57:39;33.00;27.30
65072;DHT22;51663;52.310;17.016;2023-05-23T02:00:41;33.00;27.00
65072;DHT22;51663;52.310;17.016;2023-05-23T02:03:43;33.00;27.10
65072;DHT22;51663;52.310;17.016;2023-05-23T02:06:45;33.00;27.10
65072;DHT22;51663;52.310;17.016;2023-05-23T02:09:48;32.90;27.10
65072;DHT22;51663;52.310;17.016;2023-05-23T02:12:50;32.90;27.10
65072;DHT22;51663;52.310;17.016;2023-05-23T02:15:53;33.00;27.00
65072;DHT22;51663;52.310;17.016;2023-05-23T02:18:55;33.00;27.00
65072;DHT22;51663;52.310;17.016;2023-05-23T02:21:58;32.90;27.00
65072;DHT22;51663;52.310;17.016;2023-05-23T02:24:59;32.90;27.00
65072;DHT22;51663;52.310;17.016;2023-05-23T02:28:02;32.90;27.10
65072;DHT22;51663;52.310;17.016;2023-05-23T02:31:04;32.90;27.20
65072;DHT22;51663;52.310;17.016;2023-05-23T02:34:07;32.80;27.40
65072;DHT22;51663;52.310;17.016;2023-05-23T02:37:09;32.90;27.20
65072;DHT22;51663;52.310;17.016;2023-05-23T02:40:11;32.80;27.20
65072;DHT22;51663;52.310;17.016;2023-05-23T02:43:13;32.90;27.20
65072;DHT22;51663;52.310;17.016;2023-05-23T02:46:16;32.90;27.20
65072;DHT22;51663;52.310;17.016;2023-05-23T02:49:18;32.80;27.20
65072;DHT22;51663;52.310;17.016;2023-05-23T02:52:20;32.90;27.10
65072;DHT22;51663;52.310;17.016;2023-05-23T02:55:22;32.80;27.10
65072;DHT22;51663;52.310;17.016;2023-05-23T02:58:25;32.90;27.10
65072;DHT22;51663;52.310;17.016;2023-05-23T03:01:27;32.90;27.10
65072;DHT22;51663;52.310;17.016;2023-05-23T03:04:29;33.00;27.00
65072;DHT22;51663;52.310;17.016;2023-05-23T03:07:31;33.10;27.10
65072;DHT22;51663;52.310;17.016;2023-05-23T03:10:34;33.10;27.00
65072;DHT22;51663;52.310;17.016;2023-05-23T03:13:36;32.90;27.10
65072;DHT22;51663;52.310;17.016;2023-05-23T03:16:39;33.00;27.00
65072;DHT22;51663;52.310;17.016;2023-05-23T03:19:41;33.10;26.90
65072;DHT22;51663;52.310;17.016;2023-05-23T03:22:43;33.20;26.90
65072;DHT22;51663;52.310;17.016;2023-05-23T03:25:46;33.20;26.80
65072;DHT22;51663;52.310;17.016;2023-05-23T03:28:49;33.30;26.80
65072;DHT22;51663;52.310;17.016;2023-05-23T03:31:52;33.20;27.00
65072;DHT22;51663;52.310;17.016;2023-05-23T03:34:54;33.30;27.00
65072;DHT22;51663;52.310;17.016;2023-05-23T03:37:57;33.30;26.90
65072;DHT22;51663;52.310;17.016;2023-05-23T03:40:59;33.50;26.80
65072;DHT22;51663;52.310;17.016;2023-05-23T03:44:01;33.70;26.70
65072;DHT22;51663;52.310;17.016;2023-05-23T03:47:04;33.30;26.80
65072;DHT22;51663;52.310;17.016;2023-05-23T03:50:08;33.40;26.90
65072;DHT22;51663;52.310;17.016;2023-05-23T03:53:10;33.70;26.70
65072;DHT22;51663;52.310;17.016;2023-05-23T03:56:12;33.90;26.50
65072;DHT22;51663;52.310;17.016;2023-05-23T03:59:15;34.10;26.40
65072;DHT22;51663;52.310;17.016;2023-05-23T04:02:17;33.90;26.50
65072;DHT22;51663;52.310;17.016;2023-05-23T04:05:19;34.20;26.20
65072;DHT22;51663;52.310;17.016;2023-05-23T04:08:21;34.20;26.40
65072;DHT22;51663;52.310;17.016;2023-05-23T04:11:24;34.30;26.40
65072;DHT22;51663;52.310;17.016;2023-05-23T04:14:26;33.90;26.60
65072;DHT22;51663;52.310;17.016;2023-05-23T04:17:28;33.90;26.60
65072;DHT22;51663;52.310;17.016;2023-05-23T04:20:32;34.10;26.60
65072;DHT22;51663;52.310;17.016;2023-05-23T04:23:34;34.20;26.50
65072;DHT22;51663;52.310;17.016;2023-05-23T04:26:37;34.10;26.70
65072;DHT22;51663;52.310;17.016;2023-05-23T04:29:40;34.10;26.70
65072;DHT22;51663;52.310;17.016;2023-05-23T04:32:42;34.80;26.60
65072;DHT22;51663;52.310;17.016;2023-05-23T04:35:45;35.20;26.20
65072;DHT22;51663;52.310;17.016;2023-05-23T04:38:47;35.30;26.20
65072;DHT22;51663;52.310;17.016;2023-05-23T04:41:49;35.50;26.10
65072;DHT22;51663;52.310;17.016;2023-05-23T04:44:51;35.70;25.90
65072;DHT22;51663;52.310;17.016;2023-05-23T04:47:53;36.20;25.90
65072;DHT22;51663;52.310;17.016;2023-05-23T04:50:56;36.60;25.60
65072;DHT22;51663;52.310;17.016;2023-05-23T04:54:03;37.20;25.00
65072;DHT22;51663;52.310;17.016;2023-05-23T04:57:05;37.60;24.80
65072;DHT22;51663;52.310;17.016;2023-05-23T05:00:07;38.00;24.20
65072;DHT22;51663;52.310;17.016;2023-05-23T05:03:11;38.40;24.00
65072;DHT22;51663;52.310;17.016;2023-05-23T05:06:14;38.60;24.00
65072;DHT22;51663;52.310;17.016;2023-05-23T05:09:17;38.60;23.90
65072;DHT22;51663;52.310;17.016;2023-05-23T05:12:20;38.50;23.70
65072;DHT22;51663;52.310;17.016;2023-05-23T05:15:22;38.50;24.10
65072;DHT22;51663;52.310;17.016;2023-05-23T05:18:29;38.70;24.00
65072;DHT22;51663;52.310;17.016;2023-05-23T05:21:31;39.00;24.10
65072;DHT22;51663;52.310;17.016;2023-05-23T05:24:33;39.10;23.90
65072;DHT22;51663;52.310;17.016;2023-05-23T05:27:36;39.10;23.70
65072;DHT22;51663;52.310;17.016;2023-05-23T05:30:42;38.80;24.00
65072;DHT22;51663;52.310;17.016;2023-05-23T05:33:44;38.60;23.90
65072;DHT22;51663;52.310;17.016;2023-05-23T05:36:47;38.20;24.10
65072;DHT22;51663;52.310;17.016;2023-05-23T05:39:49;38.40;24.00
65072;DHT22;51663;52.310;17.016;2023-05-23T05:42:52;38.30;24.00
65072;DHT22;51663;52.310;17.016;2023-05-23T05:45:54;38.20;23.90
65072;DHT22;51663;52.310;17.016;2023-05-23T05:48:56;38.50;24.00
65072;DHT22;51663;52.310;17.016;2023-05-23T05:51:58;38.90;24.20
65072;DHT22;51663;52.310;17.016;2023-05-23T05:55:00;39.40;23.50
65072;DHT22;51663;52.310;17.016;2023-05-23T05:58:02;39.80;23.40
65072;DHT22;51663;52.310;17.016;2023-05-23T06:01:05;40.30;23.30
65072;DHT22;51663;52.310;17.016;2023-05-23T06:04:07;40.80;22.80
65072;DHT22;51663;52.310;17.016;2023-05-23T06:07:09;40.90;22.50
65072;DHT22;51663;52.310;17.016;2023-05-23T06:10:11;40.80;22.80
65072;DHT22;51663;52.310;17.016;2023-05-23T06:13:14;40.80;22.90
65072;DHT22;51663;52.310;17.016;2023-05-23T06:16:16;40.90;22.50
65072;DHT22;51663;52.310;17.016;2023-05-23T06:19:19;40.80;22.50
65072;DHT22;51663;52.310;17.016;2023-05-23T06:22:21;40.50;22.70
65072;DHT22;51663;52.310;17.016;2023-05-23T06:25:23;40.80;22.50
65072;DHT22;51663;52.310;17.016;2023-05-23T06:28:25;40.50;22.60
65072;DHT22;51663;52.310;17.016;2023-05-23T06:31:28;40.00;23.20
65072;DHT22;51663;52.310;17.016;2023-05-23T06:34:30;39.60;23.30
65072;DHT22;51663;52.310;17.016;2023-05-23T06:37:32;39.50;23.30
65072;DHT22;51663;52.310;17.016;2023-05-23T06:40:35;39.50;23.90
65072;DHT22;51663;52.310;17.016;2023-05-23T06:43:38;39.50;23.70
65072;DHT22;51663;52.310;17.016;2023-05-23T06:46:45;39.50;23.70
65072;DHT22;51663;52.310;17.016;2023-05-23T06:49:47;39.40;23.70
65072;DHT22;51663;52.310;17.016;2023-05-23T06:52:49;39.30;24.00
65072;DHT22;51663;52.310;17.016;2023-05-23T06:55:52;39.70;24.10
65072;DHT22;51663;52.310;17.016;2023-05-23T06:58:54;39.70;23.50
65072;DHT22;51663;52.310;17.016;2023-05-23T07:01:56;39.90;23.80
65072;DHT22;51663;52.310;17.016;2023-05-23T07:04:58;39.90;23.50
65072;DHT22;51663;52.310;17.016;2023-05-23T07:08:00;39.70;23.60
65072;DHT22;51663;52.310;17.016;2023-05-23T07:11:02;39.70;23.60
65072;DHT22;51663;52.310;17.016;2023-05-23T07:14:05;40.00;23.40
65072;DHT22;51663;52.310;17.016;2023-05-23T07:17:08;40.20;23.60
65072;DHT22;51663;52.310;17.016;2023-05-23T07:20:11;40.40;23.20
65072;DHT22;51663;52.310;17.016;2023-05-23T07:23:13;41.00;23.60
65072;DHT22;51663;52.310;17.016;2023-05-23T07:26:15;41.50;22.60
65072;DHT22;51663;52.310;17.016;2023-05-23T07:29:17;41.70;22.40
65072;DHT22;51663;52.310;17.016;2023-05-23T07:32:20;42.00;22.20
65072;DHT22;51663;52.310;17.016;2023-05-23T07:35:22;42.40;22.40
65072;DHT22;51663;52.310;17.016;2023-05-23T07:38:27;43.00;22.20
65072;DHT22;51663;52.310;17.016;2023-05-23T07:41:29;43.10;21.20
65072;DHT22;51663;52.310;17.016;2023-05-23T07:44:31;43.00;21.60
65072;DHT22;51663;52.310;17.016;2023-05-23T07:47:33;42.90;21.50
65072;DHT22;51663;52.310;17.016;2023-05-23T07:50:36;43.10;22.20
65072;DHT22;51663;52.310;17.016;2023-05-23T07:53:38;43.00;21.40
65072;DHT22;51663;52.310;17.016;2023-05-23T07:56:42;42.60;21.40
65072;DHT22;51663;52.310;17.016;2023-05-23T07:59:44;42.50;21.30
65072;DHT22;51663;52.310;17.016;2023-05-23T08:02:46;42.20;21.40
65072;DHT22;51663;52.310;17.016;2023-05-23T08:05:48;42.20;21.60
65072;DHT22;51663;52.310;17.016;2023-05-23T08:08:51;42.40;21.50
65072;DHT22;51663;52.310;17.016;2023-05-23T08:11:54;42.40;22.00
65072;DHT22;51663;52.310;17.016;2023-05-23T08:14:56;42.20;21.40
65072;DHT22;51663;52.310;17.016;2023-05-23T08:17:58;42.10;21.50
65072;DHT22;51663;52.310;17.016;2023-05-23T08:21:01;42.00;21.50
65072;DHT22;51663;52.310;17.016;2023-05-23T08:24:05;42.00;21.80
65072;DHT22;51663;52.310;17.016;2023-05-23T08:27:07;42.00;21.60
65072;DHT22;51663;52.310;17.016;2023-05-23T08:30:10;42.00;21.90
65072;DHT22;51663;52.310;17.016;2023-05-23T08:33:13;41.60;21.50
65072;DHT22;51663;52.310;17.016;2023-05-23T08:36:15;41.50;21.90
65072;DHT22;51663;52.310;17.016;2023-05-23T08:39:17;41.50;22.10
65072;DHT22;51663;52.310;17.016;2023-05-23T08:42:19;41.80;22.30
65072;DHT22;51663;52.310;17.016;2023-05-23T08:45:22;41.80;21.60
65072;DHT22;51663;52.310;17.016;2023-05-23T08:48:25;41.70;22.00
65072;DHT22;51663;52.310;17.016;2023-05-23T08:51:29;41.60;21.70
65072;DHT22;51663;52.310;17.016;2023-05-23T08:54:33;41.60;22.00
65072;DHT22;51663;52.310;17.016;2023-05-23T08:57:35;41.60;21.40
65072;DHT22;51663;52.310;17.016;2023-05-23T09:00:39;41.50;21.70
65072;DHT22;51663;52.310;17.016;2023-05-23T09:03:41;41.50;22.40
65072;DHT22;51663;52.310;17.016;2023-05-23T09:06:45;41.70;21.60
65072;DHT22;51663;52.310;17.016;2023-05-23T09:09:47;41.50;21.20
65072;DHT22;51663;52.310;17.016;2023-05-23T09:12:49;41.70;20.90
65072;DHT22;51663;52.310;17.016;2023-05-23T09:15:56;41.80;21.20
65072;DHT22;51663;52.310;17.016;2023-05-23T09:19:09;41.70;20.20
65072;DHT22;51663;52.310;17.016;2023-05-23T09:22:13;41.70;20.70
65072;DHT22;51663;52.310;17.016;2023-05-23T09:25:15;41.60;20.90
65072;DHT22;51663;52.310;17.016;2023-05-23T09:28:18;41.40;20.80
65072;DHT22;51663;52.310;17.016;2023-05-23T09:31:25;41.20;21.30
65072;DHT22;51663;52.310;17.016;2023-05-23T09:34:27;41.30;21.10
65072;DHT22;51663;52.310;17.016;2023-05-23T09:37:37;41.50;20.40
65072;DHT22;51663;52.310;17.016;2023-05-23T09:40:44;41.70;20.70
65072;DHT22;51663;52.310;17.016;2023-05-23T09:46:53;41.70;20.10
65072;DHT22;51663;52.310;17.016;2023-05-23T09:49:55;41.80;20.60
65072;DHT22;51663;52.310;17.016;2023-05-23T09:52:57;41.50;20.60
65072;DHT22;51663;52.310;17.016;2023-05-23T09:56:01;41.70;20.80
65072;DHT22;51663;52.310;17.016;2023-05-23T09:59:04;41.50;20.40
65072;DHT22;51663;52.310;17.016;2023-05-23T10:02:12;41.60;20.20
65072;DHT22;51663;52.310;17.016;2023-05-23T10:05:45;41.70;20.80
65072;DHT22;51663;52.310;17.016;2023-05-23T10:09:11;41.70;20.10
65072;DHT22;51663;52.310;17.016;2023-05-23T10:15:24;41.70;20.70
65072;DHT22;51663;52.310;17.016;2023-05-23T10:18:29;41.80;20.60
65072;DHT22;51663;52.310;17.016;2023-05-23T10:21:39;41.80;19.20
65072;DHT22;51663;52.310;17.016;2023-05-23T10:24:47;41.90;19.00
65072;DHT22;51663;52.310;17.016;2023-05-23T10:27:54;42.10;18.40
65072;DHT22;51663;52.310;17.016;2023-05-23T10:31:03;41.90;18.80
65072;DHT22;51663;52.310;17.016;2023-05-23T10:34:20;42.00;19.20
65072;DHT22;51663;52.310;17.016;2023-05-23T10:37:38;42.10;19.10
65072;DHT22;51663;52.310;17.016;2023-05-23T10:44:27;42.60;19.00
65072;DHT22;51663;52.310;17.016;2023-05-23T10:47:30;42.70;19.10
65072;DHT22;51663;52.310;17.016;2023-05-23T10:50:35;42.70;19.40
65072;DHT22;51663;52.310;17.016;2023-05-23T10:53:42;42.80;18.90
65072;DHT22;51663;52.310;17.016;2023-05-23T10:56:45;42.80;19.10
65072;DHT22;51663;52.310;17.016;2023-05-23T10:59:51;42.80;18.80
65072;DHT22;51663;52.310;17.016;2023-05-23T11:02:54;42.60;19.40
65072;DHT22;51663;52.310;17.016;2023-05-23T11:06:02;42.70;19.50
65072;DHT22;51663;52.310;17.016;2023-05-23T11:09:12;42.80;19.00
65072;DHT22;51663;52.310;17.016;2023-05-23T11:12:14;42.70;19.40
65072;DHT22;51663;52.310;17.016;2023-05-23T11:18:25;42.90;19.30
65072;DHT22;51663;52.310;17.016;2023-05-23T11:21:28;42.80;19.30
65072;DHT22;51663;52.310;17.016;2023-05-23T11:24:50;42.70;20.10
65072;DHT22;51663;52.310;17.016;2023-05-23T11:27:53;42.60;19.80
65072;DHT22;51663;52.310;17.016;2023-05-23T11:30:56;42.70;19.70
65072;DHT22;51663;52.310;17.016;2023-05-23T11:33:58;42.60;19.80
65072;DHT22;51663;52.310;17.016;2023-05-23T11:37:01;42.50;20.50
65072;DHT22;51663;52.310;17.016;2023-05-23T11:40:38;42.40;22.70
65072;DHT22;51663;52.310;17.016;2023-05-23T11:43:51;42.30;23.20
65072;DHT22;51663;52.310;17.016;2023-05-23T11:47:03;42.10;24.90
65072;DHT22;51663;52.310;17.016;2023-05-23T11:50:06;41.80;26.20
65072;DHT22;51663;52.310;17.016;2023-05-23T11:53:08;41.50;27.00
65072;DHT22;51663;52.310;17.016;2023-05-23T11:56:11;41.20;26.80
65072;DHT22;51663;52.310;17.016;2023-05-23T11:59:15;41.00;26.90
65072;DHT22;51663;52.310;17.016;2023-05-23T12:02:17;40.70;28.40
65072;DHT22;51663;52.310;17.016;2023-05-23T12:05:19;40.50;27.40
65072;DHT22;51663;52.310;17.016;2023-05-23T12:08:22;40.40;27.70
65072;DHT22;51663;52.310;17.016;2023-05-23T12:11:24;40.30;28.50
65072;DHT22;51663;52.310;17.016;2023-05-23T12:14:28;40.20;28.80
65072;DHT22;51663;52.310;17.016;2023-05-23T12:17:30;40.00;28.30
65072;DHT22;51663;52.310;17.016;2023-05-23T12:20:32;39.90;28.50
65072;DHT22;51663;52.310;17.016;2023-05-23T12:23:38;39.70;29.00
65072;DHT22;51663;52.310;17.016;2023-05-23T12:26:57;39.50;28.70
65072;DHT22;51663;52.310;17.016;2023-05-23T12:30:12;39.30;28.90
65072;DHT22;51663;52.310;17.016;2023-05-23T12:33:14;39.30;28.60
65072;DHT22;51663;52.310;17.016;2023-05-23T12:36:25;39.10;28.80
65072;DHT22;51663;52.310;17.016;2023-05-23T12:39:30;39.00;29.50
65072;DHT22;51663;52.310;17.016;2023-05-23T12:42:49;38.90;30.30
65072;DHT22;51663;52.310;17.016;2023-05-23T12:45:55;38.80;31.70
65072;DHT22;51663;52.310;17.016;2023-05-23T12:48:57;38.70;30.50
65072;DHT22;51663;52.310;17.016;2023-05-23T12:51:59;38.50;30.40
65072;DHT22;51663;52.310;17.016;2023-05-23T12:55:01;38.50;31.00
65072;DHT22;51663;52.310;17.016;2023-05-23T12:58:04;38.30;31.50
65072;DHT22;51663;52.310;17.016;2023-05-23T13:01:06;38.20;31.50
65072;DHT22;51663;52.310;17.016;2023-05-23T13:04:08;38.00;32.70
65072;DHT22;51663;52.310;17.016;2023-05-23T13:07:10;38.10;33.00
65072;DHT22;51663;52.310;17.016;2023-05-23T13:10:13;38.00;32.40
65072;DHT22;51663;52.310;17.016;2023-05-23T13:13:15;37.90;33.50
65072;DHT22;51663;52.310;17.016;2023-05-23T13:16:18;37.80;33.30
65072;DHT22;51663;52.310;17.016;2023-05-23T13:19:20;37.80;34.20
65072;DHT22;51663;52.310;17.016;2023-05-23T13:22:22;37.90;33.60
65072;DHT22;51663;52.310;17.016;2023-05-23T13:25:25;37.80;32.70
65072;DHT22;51663;52.310;17.016;2023-05-23T13:28:27;37.80;32.50
65072;DHT22;51663;52.310;17.016;2023-05-23T13:31:29;37.70;33.60
65072;DHT22;51663;52.310;17.016;2023-05-23T13:34:32;37.80;33.00
65072;DHT22;51663;52.310;17.016;2023-05-23T13:37:38;38.00;34.10
65072;DHT22;51663;52.310;17.016;2023-05-23T13:40:40;37.90;33.00
65072;DHT22;51663;52.310;17.016;2023-05-23T13:43:42;37.70;33.90
65072;DHT22;51663;52.310;17.016;2023-05-23T13:46:45;37.70;34.10
65072;DHT22;51663;52.310;17.016;2023-05-23T13:49:47;37.70;34.50
65072;DHT22;51663;52.310;17.016;2023-05-23T13:52:49;37.70;33.70
65072;DHT22;51663;52.310;17.016;2023-05-23T13:55:53;37.70;34.40
65072;DHT22;51663;52.310;17.016;2023-05-23T13:58:55;37.80;34.00
65072;DHT22;51663;52.310;17.016;2023-05-23T14:01:57;37.80;34.00
65072;DHT22;51663;52.310;17.016;2023-05-23T14:05:00;37.80;33.00
65072;DHT22;51663;52.310;17.016;2023-05-23T14:08:02;37.70;33.20
65072;DHT22;51663;52.310;17.016;2023-05-23T14:11:05;37.60;33.30
65072;DHT22;51663;52.310;17.016;2023-05-23T14:14:07;37.50;33.30
65072;DHT22;51663;52.310;17.016;2023-05-23T14:17:16;37.40;33.60
65072;DHT22;51663;52.310;17.016;2023-05-23T14:20:18;37.40;33.30
65072;DHT22;51663;52.310;17.016;2023-05-23T14:23:20;37.20;33.90
65072;DHT22;51663;52.310;17.016;2023-05-23T14:26:22;37.00;33.60
65072;DHT22;51663;52.310;17.016;2023-05-23T14:29:25;36.70;33.80
65072;DHT22;51663;52.310;17.016;2023-05-23T14:32:27;36.60;34.90
65072;DHT22;51663;52.310;17.016;2023-05-23T14:35:30;36.60;34.30
65072;DHT22;51663;52.310;17.016;2023-05-23T14:38:32;36.60;34.60
65072;DHT22;51663;52.310;17.016;2023-05-23T14:41:34;36.70;34.30
65072;DHT22;51663;52.310;17.016;2023-05-23T14:44:36;36.70;34.00
65072;DHT22;51663;52.310;17.016;2023-05-23T14:47:38;36.10;35.00
65072;DHT22;51663;52.310;17.016;2023-05-23T14:50:40;35.80;34.70
65072;DHT22;51663;52.310;17.016;2023-05-23T14:53:43;36.00;34.70
65072;DHT22;51663;52.310;17.016;2023-05-23T14:56:45;35.90;34.10
65072;DHT22;51663;52.310;17.016;2023-05-23T14:59:48;36.10;33.80
65072;DHT22;51663;52.310;17.016;2023-05-23T15:02:50;36.20;34.50
65072;DHT22;51663;52.310;17.016;2023-05-23T15:05:54;36.20;33.90
65072;DHT22;51663;52.310;17.016;2023-05-23T15:08:56;36.20;33.20
65072;DHT22;51663;52.310;17.016;2023-05-23T15:11:59;36.30;32.80
65072;DHT22;51663;52.310;17.016;2023-05-23T15:15:01;36.50;33.80
65072;DHT22;51663;52.310;17.016;2023-05-23T15:18:05;36.80;32.70
65072;DHT22;51663;52.310;17.016;2023-05-23T15:21:10;36.80;34.50
65072;DHT22;51663;52.310;17.016;2023-05-23T15:24:13;37.00;34.60
65072;DHT22;51663;52.310;17.016;2023-05-23T15:27:15;37.10;34.40
65072;DHT22;51663;52.310;17.016;2023-05-23T15:30:22;37.10;34.30
65072;DHT22;51663;52.310;17.016;2023-05-23T15:33:24;37.30;34.50
65072;DHT22;51663;52.310;17.016;2023-05-23T15:36:27;37.20;33.70
65072;DHT22;51663;52.310;17.016;2023-05-23T15:39:29;37.30;33.40
65072;DHT22;51663;52.310;17.016;2023-05-23T15:42:31;37.20;33.60
65072;DHT22;51663;52.310;17.016;2023-05-23T15:45:33;37.30;33.70
65072;DHT22;51663;52.310;17.016;2023-05-23T15:48:35;37.20;33.90
65072;DHT22;51663;52.310;17.016;2023-05-23T15:51:37;37.20;34.20
65072;DHT22;51663;52.310;17.016;2023-05-23T15:54:40;37.20;33.20
65072;DHT22;51663;52.310;17.016;2023-05-23T15:57:42;37.30;32.40
65072;DHT22;51663;52.310;17.016;2023-05-23T16:00:44;37.30;32.70
65072;DHT22;51663;52.310;17.016;2023-05-23T16:03:46;37.20;33.50
65072;DHT22;51663;52.310;17.016;2023-05-23T16:06:49;37.00;32.90
65072;DHT22;51663;52.310;17.016;2023-05-23T16:09:51;36.40;33.50
65072;DHT22;51663;52.310;17.016;2023-05-23T16:12:53;36.90;33.60
65072;DHT22;51663;52.310;17.016;2023-05-23T16:15:56;37.00;33.40
65072;DHT22;51663;52.310;17.016;2023-05-23T16:18:58;37.00;33.40
65072;DHT22;51663;52.310;17.016;2023-05-23T16:22:01;36.90;33.00
65072;DHT22;51663;52.310;17.016;2023-05-23T16:25:03;36.90;33.50
65072;DHT22;51663;52.310;17.016;2023-05-23T16:28:07;36.90;33.20
65072;DHT22;51663;52.310;17.016;2023-05-23T16:31:13;37.10;32.40
65072;DHT22;51663;52.310;17.016;2023-05-23T16:34:15;37.20;32.60
65072;DHT22;51663;52.310;17.016;2023-05-23T16:37:17;37.30;32.70
65072;DHT22;51663;52.310;17.016;2023-05-23T16:40:19;37.40;33.10
65072;DHT22;51663;52.310;17.016;2023-05-23T16:43:22;37.10;32.90
65072;DHT22;51663;52.310;17.016;2023-05-23T16:46:24;37.00;31.90
65072;DHT22;51663;52.310;17.016;2023-05-23T16:49:27;36.30;33.60
65072;DHT22;51663;52.310;17.016;2023-05-23T16:52:29;36.60;32.60
65072;DHT22;51663;52.310;17.016;2023-05-23T16:55:32;36.70;32.70
65072;DHT22;51663;52.310;17.016;2023-05-23T16:58:34;36.60;32.40
65072;DHT22;51663;52.310;17.016;2023-05-23T17:01:39;36.90;32.90
65072;DHT22;51663;52.310;17.016;2023-05-23T17:04:42;36.60;32.80
65072;DHT22;51663;52.310;17.016;2023-05-23T17:07:44;36.50;33.60
65072;DHT22;51663;52.310;17.016;2023-05-23T17:10:46;36.70;33.70
65072;DHT22;51663;52.310;17.016;2023-05-23T17:13:49;36.10;33.70
65072;DHT22;51663;52.310;17.016;2023-05-23T17:16:51;36.30;34.30
65072;DHT22;51663;52.310;17.016;2023-05-23T17:19:53;36.50;34.00
65072;DHT22;51663;52.310;17.016;2023-05-23T17:22:55;36.70;33.70
65072;DHT22;51663;52.310;17.016;2023-05-23T17:25:58;36.30;33.60
65072;DHT22;51663;52.310;17.016;2023-05-23T17:29:00;36.60;34.10
65072;DHT22;51663;52.310;17.016;2023-05-23T17:32:02;36.60;33.90
65072;DHT22;51663;52.310;17.016;2023-05-23T17:35:05;36.80;33.60
65072;DHT22;51663;52.310;17.016;2023-05-23T17:38:07;36.80;33.70
65072;DHT22;51663;52.310;17.016;2023-05-23T17:41:09;36.80;33.70
65072;DHT22;51663;52.310;17.016;2023-05-23T17:44:12;36.90;34.10
65072;DHT22;51663;52.310;17.016;2023-05-23T17:47:14;36.80;33.80
65072;DHT22;51663;52.310;17.016;2023-05-23T17:50:16;37.00;34.30
65072;DHT22;51663;52.310;17.016;2023-05-23T17:53:18;37.00;34.10
65072;DHT22;51663;52.310;17.016;2023-05-23T17:56:20;37.00;34.20
65072;DHT22;51663;52.310;17.016;2023-05-23T17:59:26;37.00;34.10
65072;DHT22;51663;52.310;17.016;2023-05-23T18:02:28;36.90;34.20
65072;DHT22;51663;52.310;17.016;2023-05-23T18:05:31;36.90;34.10
65072;DHT22;51663;52.310;17.016;2023-05-23T18:08:33;36.80;34.50
65072;DHT22;51663;52.310;17.016;2023-05-23T18:11:36;36.80;34.60
65072;DHT22;51663;52.310;17.016;2023-05-23T18:14:39;36.90;34.60
65072;DHT22;51663;52.310;17.016;2023-05-23T18:17:42;36.60;34.50
65072;DHT22;51663;52.310;17.016;2023-05-23T18:20:45;36.50;34.70
65072;DHT22;51663;52.310;17.016;2023-05-23T18:23:47;36.50;34.80
65072;DHT22;51663;52.310;17.016;2023-05-23T18:26:49;36.60;34.80
65072;DHT22;51663;52.310;17.016;2023-05-23T18:29:51;36.60;34.90
65072;DHT22;51663;52.310;17.016;2023-05-23T18:32:54;36.50;34.80
65072;DHT22;51663;52.310;17.016;2023-05-23T18:35:56;36.60;34.80
65072;DHT22;51663;52.310;17.016;2023-05-23T18:38:58;36.60;35.10
65072;DHT22;51663;52.310;17.016;2023-05-23T18:42:00;36.70;34.20
65072;DHT22;51663;52.310;17.016;2023-05-23T18:45:03;36.70;34.10
65072;DHT22;51663;52.310;17.016;2023-05-23T18:48:05;36.60;34.50
65072;DHT22;51663;52.310;17.016;2023-05-23T18:51:09;36.60;34.70
65072;DHT22;51663;52.310;17.016;2023-05-23T18:54:13;36.60;34.70
65072;DHT22;51663;52.310;17.016;2023-05-23T18:57:15;36.70;34.90
65072;DHT22;51663;52.310;17.016;2023-05-23T19:00:18;36.70;34.60
65072;DHT22;51663;52.310;17.016;2023-05-23T19:03:21;36.70;34.50
65072;DHT22;51663;52.310;17.016;2023-05-23T19:06:23;36.80;34.50
65072;DHT22;51663;52.310;17.016;2023-05-23T19:09:25;36.90;34.30
65072;DHT22;51663;52.310;17.016;2023-05-23T19:12:27;36.70;35.30
65072;DHT22;51663;52.310;17.016;2023-05-23T19:15:30;36.70;34.50
65072;DHT22;51663;52.310;17.016;2023-05-23T19:18:32;36.60;34.90
65072;DHT22;51663;52.310;17.016;2023-05-23T19:21:34;36.50;35.30